Time;durP1;ratioP1;P1;durP2;ratioP2;P2;SDS_P1;SDS_P2;PMS_P1;PMS_P2;Temp;Humidity;BMP_temperature;BMP_pressure;BME280_temperature;BME280_humidity;BME280_pressure;Samples;Min_cycle;Max_cycle;Signal;HPM_P1;HPM_P2
2023/08/20 00:00:28;;;;;;;15.20;13.60;;;21.40;99.90;;;;;;5092043;28;20439;-66
2023/08/20 00:03:01;;;;;;;16.80;15.20;;;21.50;99.90;;;;;;5090722;28;20446;-66
2023/08/20 00:05:30;;;;;;;14.77;13.40;;;21.40;99.90;;;;;;5091552;28;20467;-66
2023/08/20 00:07:59;;;;;;;16.70;14.30;;;21.30;99.90;;;;;;5091671;28;20533;-66
2023/08/20 00:10:27;;;;;;;16.67;15.00;;;21.30;99.90;;;;;;5091768;28;21022;-66
2023/08/20 00:12:55;;;;;;;15.30;13.90;;;21.20;99.90;;;;;;5090621;28;20477;-66
2023/08/20 00:15:26;;;;;;;21.93;15.13;;;21.20;99.90;;;;;;5090276;28;20504;-65
2023/08/20 00:17:55;;;;;;;15.73;14.23;;;21.20;99.90;;;;;;5091577;28;20525;-66
2023/08/20 00:20:24;;;;;;;16.50;14.83;;;21.20;99.90;;;;;;5091429;28;20438;-66
2023/08/20 00:22:53;;;;;;;16.73;15.17;;;21.30;99.90;;;;;;5090373;28;20450;-66
2023/08/20 00:25:22;;;;;;;16.63;14.93;;;21.50;99.90;;;;;;5091381;28;20490;-66
2023/08/20 00:27:50;;;;;;;18.00;15.17;;;21.40;99.90;;;;;;5091233;28;20430;-66
2023/08/20 00:30:18;;;;;;;16.33;14.73;;;21.40;99.90;;;;;;5091387;28;20508;-67
2023/08/20 00:32:46;;;;;;;15.73;14.33;;;21.40;99.90;;;;;;5090073;28;20445;-66
2023/08/20 00:35:15;;;;;;;16.83;14.30;;;21.40;99.90;;;;;;5091297;28;20469;-66
2023/08/20 00:37:44;;;;;;;16.90;14.40;;;21.50;99.90;;;;;;5090933;28;20451;-66
2023/08/20 00:40:12;;;;;;;16.73;15.03;;;21.40;99.90;;;;;;5091373;28;20549;-66
2023/08/20 00:42:42;;;;;;;17.60;16.00;;;21.50;99.90;;;;;;5089818;28;20910;-66
2023/08/20 00:45:10;;;;;;;21.67;16.37;;;21.60;99.90;;;;;;5090912;28;20462;-66
2023/08/20 00:47:39;;;;;;;16.10;14.50;;;21.70;99.90;;;;;;5090949;28;20495;-66
2023/08/20 00:50:08;;;;;;;16.03;14.40;;;21.60;99.90;;;;;;5090679;28;20473;-67
2023/08/20 00:52:36;;;;;;;16.67;15.07;;;21.50;99.90;;;;;;5089917;28;20453;-65
2023/08/20 00:55:09;;;;;;;16.67;15.13;;;21.50;99.90;;;;;;5090625;28;20442;-66
2023/08/20 00:57:38;;;;;;;15.93;14.53;;;21.40;99.90;;;;;;5091084;28;20430;-66
2023/08/20 01:00:10;;;;;;;17.67;16.07;;;21.40;99.90;;;;;;5090815;28;20438;-67
2023/08/20 01:02:39;;;;;;;17.27;15.57;;;21.20;99.90;;;;;;5089504;28;20632;-64
2023/08/20 01:05:10;;;;;;;413.33;212.60;;;21.20;99.90;;;;;;5090699;28;20458;-66
2023/08/20 01:07:49;;;;;;;22.00;15.20;;;21.20;99.90;;;;;;5090600;28;20522;-66
2023/08/20 01:10:22;;;;;;;383.27;245.23;;;21.10;99.90;;;;;;5090404;28;20488;-66
2023/08/20 01:12:52;;;;;;;576.33;183.87;;;21.00;99.90;;;;;;5089336;28;20449;-66
2023/08/20 01:15:21;;;;;;;50.10;17.83;;;21.00;99.90;;;;;;5090614;28;20466;-67
2023/08/20 01:17:50;;;;;;;245.43;234.27;;;20.90;99.90;;;;;;5090670;28;20438;-66
2023/08/20 01:20:18;;;;;;;549.63;473.87;;;21.00;99.90;;;;;;5090177;28;20500;-66
2023/08/20 01:23:02;;;;;;;17.43;15.43;;;21.00;99.90;;;;;;5089201;28;20450;-66
2023/08/20 01:25:42;;;;;;;18.50;14.60;;;21.10;99.90;;;;;;5090157;28;21064;-66
2023/08/20 01:28:25;;;;;;;1157.80;559.97;;;21.00;99.90;;;;;;5090315;28;20540;-66
2023/08/20 01:30:55;;;;;;;235.50;191.33;;;21.00;99.90;;;;;;5090576;28;20598;-66
2023/08/20 01:33:24;;;;;;;19.40;17.00;;;21.00;99.90;;;;;;5089046;28;20833;-66
2023/08/20 01:35:52;;;;;;;218.73;200.20;;;21.10;99.90;;;;;;5089950;28;20474;-67
2023/08/20 01:38:20;;;;;;;73.77;66.73;;;21.00;99.90;;;;;;5090429;28;20866;-66
2023/08/20 01:40:48;;;;;;;50.03;35.73;;;20.90;99.90;;;;;;5090753;28;20485;-66
2023/08/20 01:43:16;;;;;;;49.43;32.67;;;20.80;99.90;;;;;;5089308;28;20442;-66
2023/08/20 01:45:45;;;;;;;47.27;25.53;;;20.80;99.90;;;;;;5090124;28;20508;-65
2023/08/20 01:48:13;;;;;;;77.27;70.40;;;20.80;99.90;;;;;;5090366;28;20446;-67
2023/08/20 01:50:41;;;;;;;90.37;83.20;;;20.80;99.90;;;;;;5090334;28;20478;-66
2023/08/20 01:53:09;;;;;;;63.87;57.23;;;20.80;99.90;;;;;;5088424;28;20498;-65
2023/08/20 01:55:37;;;;;;;54.63;30.57;;;20.80;99.90;;;;;;5089666;28;20473;-66
2023/08/20 01:58:05;;;;;;;57.47;50.77;;;20.70;99.90;;;;;;5089784;28;20438;-66
2023/08/20 02:00:33;;;;;;;101.10;93.80;;;20.70;99.90;;;;;;5090071;28;20438;-64
2023/08/20 02:03:03;;;;;;;124.50;116.47;;;20.60;99.90;;;;;;5087940;28;20977;-66
2023/08/20 02:05:31;;;;;;;116.40;108.80;;;20.70;99.90;;;;;;5089397;28;20470;-66
2023/08/20 02:07:59;;;;;;;95.07;87.87;;;20.80;99.90;;;;;;5090015;28;20453;-66
2023/08/20 02:10:27;;;;;;;68.73;62.20;;;20.70;99.90;;;;;;5089593;28;20988;-67
2023/08/20 02:12:55;;;;;;;51.80;40.97;;;20.60;99.90;;;;;;5088734;28;20437;-66
2023/08/20 02:15:23;;;;;;;48.67;25.53;;;20.60;99.90;;;;;;5089819;28;20615;-66
2023/08/20 02:17:51;;;;;;;48.77;18.97;;;20.50;99.90;;;;;;5089997;28;20442;-66
2023/08/20 02:20:20;;;;;;;47.07;17.87;;;20.40;99.90;;;;;;5089887;28;20861;-66
2023/08/20 02:22:48;;;;;;;44.77;16.33;;;20.40;99.90;;;;;;5088246;28;20446;-66
2023/08/20 02:25:16;;;;;;;46.47;19.87;;;20.40;99.90;;;;;;5089476;28;20470;-66
2023/08/20 02:27:44;;;;;;;48.80;23.13;;;20.30;99.90;;;;;;5089744;28;20445;-66
2023/08/20 02:30:14;;;;;;;53.37;35.10;;;20.30;99.90;;;;;;5089709;28;20894;-66
2023/08/20 02:32:42;;;;;;;54.87;46.60;;;20.30;99.90;;;;;;5088370;28;20450;-66
2023/08/20 02:35:10;;;;;;;73.23;66.43;;;20.30;99.90;;;;;;5089345;28;20466;-66
2023/08/20 02:37:41;;;;;;;89.70;82.40;;;20.20;99.90;;;;;;5090136;28;20484;-64
2023/08/20 02:40:11;;;;;;;109.03;101.27;;;20.20;99.90;;;;;;5093075;28;20442;-66
2023/08/20 02:42:39;;;;;;;123.03;114.93;;;20.20;99.90;;;;;;5092623;28;20484;-65
2023/08/20 02:45:08;;;;;;;134.57;125.97;;;20.20;99.90;;;;;;5093370;28;20466;-66
2023/08/20 02:47:36;;;;;;;133.73;125.17;;;20.30;99.90;;;;;;5093156;28;21002;-65
2023/08/20 02:50:06;;;;;;;129.27;120.97;;;20.30;99.90;;;;;;5093297;28;20438;-66
2023/08/20 02:52:34;;;;;;;123.57;115.50;;;20.20;99.90;;;;;;5092130;28;20541;-67
2023/08/20 02:55:04;;;;;;;101.63;93.73;;;20.20;99.90;;;;;;5092854;28;20442;-66
2023/08/20 02:57:32;;;;;;;85.90;78.40;;;20.00;99.90;;;;;;5093203;28;20500;-67
2023/08/20 03:00:01;;;;;;;63.97;56.93;;;20.00;99.90;;;;;;5093473;28;20784;-66
2023/08/20 03:02:29;;;;;;;60.40;45.27;;;20.00;99.90;;;;;;5092050;28;20816;-66
2023/08/20 03:04:57;;;;;;;55.87;34.23;;;20.00;99.90;;;;;;5092602;28;20448;-65
2023/08/20 03:07:25;;;;;;;55.53;27.53;;;20.00;99.90;;;;;;5093064;28;20532;-66
2023/08/20 03:09:53;;;;;;;55.50;27.37;;;20.00;99.90;;;;;;5092964;28;20891;-66
2023/08/20 03:12:22;;;;;;;57.40;25.90;;;20.00;99.90;;;;;;5092142;28;20478;-66
2023/08/20 03:14:50;;;;;;;58.90;31.20;;;19.90;99.90;;;;;;5092471;28;20442;-66
2023/08/20 03:17:18;;;;;;;59.50;33.73;;;19.90;99.90;;;;;;5092642;28;20860;-66
2023/08/20 03:19:55;;;;;;;62.60;41.67;;;19.90;99.90;;;;;;5092916;28;20448;-66
2023/08/20 03:22:24;;;;;;;66.90;53.17;;;20.00;99.90;;;;;;5092058;28;20457;-66
2023/08/20 03:24:52;;;;;;;65.70;53.60;;;20.00;99.90;;;;;;5092270;28;20953;-66
2023/08/20 03:27:21;;;;;;;76.70;69.07;;;20.00;99.90;;;;;;5092366;28;20443;-66
2023/08/20 03:29:49;;;;;;;96.50;88.40;;;19.90;99.90;;;;;;5092782;28;20442;-66
2023/08/20 03:32:17;;;;;;;115.93;107.10;;;20.00;99.90;;;;;;5092239;28;20478;-66
2023/08/20 03:34:45;;;;;;;128.77;120.23;;;20.00;99.90;;;;;;5092342;28;20797;-66
2023/08/20 03:37:13;;;;;;;139.23;130.27;;;20.00;99.90;;;;;;5092875;28;20438;-66
2023/08/20 03:39:41;;;;;;;150.67;141.47;;;20.00;99.90;;;;;;5092813;28;20442;-66
2023/08/20 03:42:09;;;;;;;158.33;148.73;;;19.90;99.90;;;;;;5092239;28;20445;-65
2023/08/20 03:44:38;;;;;;;166.13;156.43;;;19.90;99.90;;;;;;5091314;28;20439;-66
2023/08/20 03:47:06;;;;;;;161.13;151.83;;;19.80;99.90;;;;;;5092344;28;20909;-66
2023/08/20 03:49:36;;;;;;;162.00;152.53;;;19.80;99.90;;;;;;5092198;28;20522;-66
2023/08/20 03:52:06;;;;;;;152.23;143.00;;;19.70;99.90;;;;;;5091713;28;20956;-65
2023/08/20 03:54:34;;;;;;;146.17;137.20;;;19.70;99.90;;;;;;5091382;28;20438;-66
2023/08/20 03:57:02;;;;;;;134.07;125.47;;;19.70;99.90;;;;;;5091833;28;20463;-66
2023/08/20 03:59:31;;;;;;;126.90;118.50;;;19.70;99.90;;;;;;5091949;28;20461;-66
2023/08/20 04:02:01;;;;;;;114.80;106.40;;;19.90;99.90;;;;;;5091835;28;20874;-66
2023/08/20 04:04:29;;;;;;;103.40;95.90;;;19.70;99.90;;;;;;5090600;28;20503;-65
2023/08/20 04:06:56;;;;;;;94.17;86.57;;;19.60;99.90;;;;;;5091834;28;20489;-65
2023/08/20 04:09:24;;;;;;;88.07;80.20;;;19.70;99.90;;;;;;5091780;28;20454;-66
2023/08/20 04:11:52;;;;;;;71.47;64.67;;;19.70;99.90;;;;;;5091430;28;20485;-66
2023/08/20 04:14:20;;;;;;;61.40;54.63;;;19.70;99.90;;;;;;5090637;28;20517;-66
2023/08/20 04:16:48;;;;;;;57.30;45.60;;;19.80;99.90;;;;;;5091574;28;20458;-66
2023/08/20 04:19:18;;;;;;;57.60;37.90;;;19.90;99.90;;;;;;5091988;28;20541;-66
2023/08/20 04:21:46;;;;;;;57.30;34.93;;;19.90;99.90;;;;;;5091060;28;20507;-66
2023/08/20 04:24:14;;;;;;;53.07;29.07;;;19.90;99.90;;;;;;5090233;28;20538;-65
2023/08/20 04:26:43;;;;;;;52.47;24.87;;;19.70;99.90;;;;;;5091590;28;20492;-66
2023/08/20 04:29:11;;;;;;;51.83;21.73;;;19.60;99.90;;;;;;5091716;28;20700;-66
2023/08/20 04:31:39;;;;;;;51.27;19.80;;;19.50;99.90;;;;;;5091321;28;20488;-66
2023/08/20 04:34:07;;;;;;;50.83;18.63;;;19.50;99.90;;;;;;5090415;28;20446;-66
2023/08/20 04:36:36;;;;;;;51.20;17.80;;;19.50;99.90;;;;;;5091271;28;20465;-66
2023/08/20 04:39:05;;;;;;;49.67;16.77;;;19.50;99.90;;;;;;5071334;28;20443;-65
2023/08/20 04:41:33;;;;;;;48.23;15.80;;;19.40;99.90;;;;;;5071106;28;20439;-66
2023/08/20 04:44:01;;;;;;;49.13;15.93;;;19.50;99.90;;;;;;5069975;28;20440;-66
2023/08/20 04:46:29;;;;;;;49.90;15.57;;;19.50;99.90;;;;;;5070755;28;20463;-65
2023/08/20 04:48:57;;;;;;;56.10;16.77;;;19.50;99.90;;;;;;5071000;28;21064;-66
2023/08/20 04:51:25;;;;;;;49.30;15.90;;;19.50;99.90;;;;;;5070712;28;20475;-66
2023/08/20 04:53:54;;;;;;;49.80;16.33;;;19.50;99.90;;;;;;5076062;28;20888;-66
2023/08/20 04:56:22;;;;;;;48.80;16.73;;;19.70;99.90;;;;;;5091055;28;20474;-65
2023/08/20 04:58:50;;;;;;;50.60;16.53;;;19.70;99.90;;;;;;5090949;28;20442;-66
2023/08/20 05:01:18;;;;;;;50.27;17.97;;;19.80;99.90;;;;;;5090561;28;20439;-66
2023/08/20 05:03:46;;;;;;;52.10;18.53;;;19.70;99.90;;;;;;5089452;28;20447;-66
2023/08/20 05:06:14;;;;;;;51.03;20.37;;;19.70;99.90;;;;;;5090722;28;20458;-67
2023/08/20 05:08:42;;;;;;;50.33;20.23;;;19.80;99.90;;;;;;5090693;28;20476;-65
2023/08/20 05:11:11;;;;;;;51.70;23.53;;;19.70;99.90;;;;;;5090647;28;20481;-64
2023/08/20 05:13:39;;;;;;;53.53;23.40;;;19.90;99.90;;;;;;5090066;28;20521;-66
2023/08/20 05:16:07;;;;;;;51.47;25.60;;;20.00;99.90;;;;;;5090659;28;20965;-66
2023/08/20 05:18:35;;;;;;;53.70;26.67;;;20.00;99.90;;;;;;5090625;28;20445;-66
2023/08/20 05:21:03;;;;;;;53.47;31.50;;;20.10;99.90;;;;;;5090721;28;20446;-67
2023/08/20 05:23:31;;;;;;;55.20;32.20;;;20.10;99.90;;;;;;5089642;28;20449;-66
2023/08/20 05:25:59;;;;;;;55.03;36.00;;;20.00;99.90;;;;;;5090555;28;20843;-66
2023/08/20 05:28:28;;;;;;;56.23;40.03;;;20.00;99.90;;;;;;5090499;28;20446;-66
2023/08/20 05:30:57;;;;;;;58.83;44.13;;;20.00;99.90;;;;;;5090871;28;20493;-65
2023/08/20 05:33:26;;;;;;;56.57;45.37;;;20.10;99.90;;;;;;5089499;28;20474;-65
2023/08/20 05:35:54;;;;;;;57.50;50.73;;;20.20;99.90;;;;;;5090556;28;21082;-66
2023/08/20 05:38:22;;;;;;;59.17;51.07;;;20.30;99.90;;;;;;5090841;28;20495;-66
2023/08/20 05:40:50;;;;;;;61.03;53.97;;;20.40;99.90;;;;;;5090512;28;20444;-66
2023/08/20 05:43:18;;;;;;;60.63;54.00;;;20.40;99.90;;;;;;5088688;28;20442;-67
2023/08/20 05:45:47;;;;;;;69.07;61.70;;;20.40;99.90;;;;;;5090408;28;20803;-66
2023/08/20 05:48:15;;;;;;;71.90;64.90;;;20.50;99.90;;;;;;5090332;28;20442;-65
2023/08/20 05:50:43;;;;;;;78.03;70.77;;;20.60;99.90;;;;;;5090105;28;20966;-66
2023/08/20 05:53:11;;;;;;;83.60;76.30;;;20.70;99.90;;;;;;5088631;28;20474;-65
2023/08/20 05:55:40;;;;;;;87.53;80.20;;;20.90;99.90;;;;;;5089503;28;20535;-66
2023/08/20 05:58:08;;;;;;;92.53;85.23;;;21.00;99.90;;;;;;5089830;28;20499;-65
2023/08/20 06:00:36;;;;;;;94.33;87.03;;;21.20;99.90;;;;;;5090236;28;20517;-65
2023/08/20 06:03:07;;;;;;;95.00;87.80;;;21.20;99.90;;;;;;5088569;28;20438;-65
2023/08/20 06:05:38;;;;;;;101.13;93.63;;;21.30;99.90;;;;;;5089507;28;20469;-66
2023/08/20 06:08:06;;;;;;;114.87;106.87;;;21.30;99.90;;;;;;5088252;28;20823;-66
2023/08/20 06:10:34;;;;;;;116.80;108.70;;;21.40;99.90;;;;;;5089575;28;20944;-66
2023/08/20 06:13:02;;;;;;;126.03;117.87;;;21.50;99.90;;;;;;5091782;28;20482;-66
2023/08/20 06:15:31;;;;;;;125.43;116.83;;;21.70;99.90;;;;;;5094193;28;20527;-65
2023/08/20 06:17:59;;;;;;;127.50;119.10;;;21.90;99.90;;;;;;5094098;28;20445;-66
2023/08/20 06:20:28;;;;;;;130.40;121.67;;;22.20;99.90;;;;;;5094218;28;20533;-67
2023/08/20 06:22:56;;;;;;;134.33;125.57;;;22.50;99.90;;;;;;5092552;28;20445;-66
2023/08/20 06:25:24;;;;;;;139.20;130.60;;;22.70;99.90;;;;;;5093719;28;20462;-66
2023/08/20 06:27:52;;;;;;;135.63;127.03;;;22.80;99.90;;;;;;5093642;28;20495;-67
2023/08/20 06:30:20;;;;;;;141.40;132.47;;;22.90;99.90;;;;;;5094093;28;20442;-66
2023/08/20 06:32:48;;;;;;;152.13;142.80;;;23.00;99.90;;;;;;5092567;28;20473;-66
2023/08/20 06:35:16;;;;;;;150.10;140.87;;;23.20;99.90;;;;;;5093653;28;20466;-67
2023/08/20 06:37:46;;;;;;;145.00;136.13;;;23.40;99.90;;;;;;5093584;28;20525;-67
2023/08/20 06:40:14;;;;;;;141.80;133.00;;;23.50;99.90;;;;;;5093197;28;20450;-67
2023/08/20 06:42:42;;;;;;;145.13;136.43;;;23.60;99.90;;;;;;5092279;28;20451;-67
2023/08/20 06:45:10;;;;;;;148.93;139.83;;;23.80;99.90;;;;;;5093525;28;20549;-67
2023/08/20 06:47:38;;;;;;;157.23;148.03;;;24.00;99.90;;;;;;5093767;28;20445;-67
2023/08/20 06:50:07;;;;;;;160.37;150.87;;;24.10;99.90;;;;;;5093458;28;20450;-67
2023/08/20 06:52:35;;;;;;;165.93;156.03;;;24.30;99.90;;;;;;5092215;28;20482;-66
2023/08/20 06:55:05;;;;;;;158.90;149.20;;;24.40;99.90;;;;;;5093292;28;20495;-67
2023/08/20 06:57:33;;;;;;;166.70;156.77;;;24.50;99.90;;;;;;5093156;28;20935;-67
2023/08/20 07:00:02;;;;;;;164.23;154.33;;;24.60;99.90;;;;;;5093246;28;20491;-67
2023/08/20 07:02:30;;;;;;;171.80;162.07;;;24.60;99.90;;;;;;5092133;28;21055;-66
2023/08/20 07:04:58;;;;;;;164.13;154.60;;;24.60;99.90;;;;;;5092816;28;20517;-67
2023/08/20 07:07:26;;;;;;;167.53;157.80;;;24.80;99.90;;;;;;5093108;28;20521;-67
2023/08/20 07:09:54;;;;;;;168.37;158.27;;;24.90;99.90;;;;;;5093082;28;20454;-67
2023/08/20 07:12:23;;;;;;;167.73;157.83;;;25.10;99.90;;;;;;5092042;28;21005;-65
2023/08/20 07:14:51;;;;;;;165.17;155.17;;;25.20;99.90;;;;;;5092732;28;20932;-67
2023/08/20 07:17:19;;;;;;;160.00;150.30;;;25.30;99.90;;;;;;5092748;28;20442;-66
2023/08/20 07:19:47;;;;;;;169.37;159.07;;;25.30;99.90;;;;;;5093095;28;20990;-67
2023/08/20 07:22:15;;;;;;;160.87;151.17;;;25.20;99.90;;;;;;5092233;28;20507;-65
2023/08/20 07:24:43;;;;;;;158.47;148.77;;;25.20;99.90;;;;;;5091504;28;20845;-66
2023/08/20 07:27:12;;;;;;;167.47;157.57;;;25.10;99.90;;;;;;5092823;28;20512;-66
2023/08/20 07:29:42;;;;;;;158.93;149.20;;;25.10;99.90;;;;;;5092898;28;20438;-67
2023/08/20 07:32:11;;;;;;;166.33;156.40;;;25.10;99.90;;;;;;5092342;28;20932;-67
2023/08/20 07:34:39;;;;;;;155.97;146.17;;;25.30;99.90;;;;;;5092151;28;20702;-66
2023/08/20 07:37:07;;;;;;;162.50;152.70;;;25.40;99.90;;;;;;5092715;28;20466;-66
2023/08/20 07:39:35;;;;;;;158.23;148.27;;;25.60;99.90;;;;;;5093112;28;20446;-66
2023/08/20 07:42:03;;;;;;;160.40;150.40;;;25.60;99.90;;;;;;5092404;28;20537;-66
2023/08/20 07:44:31;;;;;;;164.87;155.07;;;25.60;99.90;;;;;;5091609;28;20442;-66
2023/08/20 07:47:00;;;;;;;160.77;151.20;;;25.60;99.90;;;;;;5092513;28;20823;-66
2023/08/20 07:49:28;;;;;;;170.07;160.20;;;25.70;99.90;;;;;;5092616;28;20533;-66
2023/08/20 07:51:56;;;;;;;162.77;152.87;;;25.90;99.90;;;;;;5091916;28;21119;-67
2023/08/20 07:54:24;;;;;;;153.80;144.10;;;26.00;99.90;;;;;;5091097;28;20474;-67
2023/08/20 07:56:52;;;;;;;157.63;148.00;;;26.20;99.90;;;;;;5091942;28;20466;-66
2023/08/20 07:59:20;;;;;;;156.07;146.47;;;26.30;99.90;;;;;;5092384;28;20438;-66
2023/08/20 08:01:48;;;;;;;190.55;179.77;;;26.50;99.90;;;;;;5091346;28;20483;-67
2023/08/20 08:04:17;;;;;;;162.37;152.80;;;26.60;99.90;;;;;;5090670;28;20193;-64
2023/08/20 08:06:45;;;;;;;157.67;147.27;;;26.80;99.90;;;;;;5091854;28;20466;-66
2023/08/20 08:09:21;;;;;;;154.83;145.43;;;26.90;99.90;;;;;;5091753;28;20454;-67
2023/08/20 08:11:49;;;;;;;154.90;145.20;;;26.90;99.90;;;;;;5091699;28;20434;-67
2023/08/20 08:14:17;;;;;;;151.47;141.97;;;27.00;99.90;;;;;;5090431;28;20485;-66
2023/08/20 08:16:47;;;;;;;156.87;147.23;;;27.10;99.90;;;;;;5091490;28;20473;-66
2023/08/20 08:19:15;;;;;;;158.93;149.03;;;26.90;99.90;;;;;;5091684;28;20525;-66
2023/08/20 08:21:45;;;;;;;150.83;141.27;;;26.90;99.90;;;;;;5091186;28;20487;-67
2023/08/20 08:24:14;;;;;;;158.40;148.43;;;27.10;99.90;;;;;;5090404;28;20989;-66
2023/08/20 08:26:42;;;;;;;154.97;145.40;;;27.20;99.90;;;;;;5091471;28;20458;-67
2023/08/20 08:29:11;;;;;;;157.77;148.10;;;27.30;99.90;;;;;;5091289;28;21039;-67
2023/08/20 08:31:39;;;;;;;152.77;143.30;;;27.40;99.90;;;;;;5091356;28;20858;-66
2023/08/20 08:34:07;;;;;;;161.33;151.57;;;27.40;99.90;;;;;;5090139;28;20500;-66
2023/08/20 08:36:35;;;;;;;157.70;147.93;;;27.30;99.90;;;;;;5089838;28;20917;-67
2023/08/20 08:39:07;;;;;;;152.80;143.23;;;27.20;99.90;;;;;;5091491;28;20442;-67
2023/08/20 08:41:39;;;;;;;164.87;154.77;;;27.20;99.90;;;;;;5091268;28;20447;-66
2023/08/20 08:44:09;;;;;;;158.10;148.40;;;27.30;99.90;;;;;;5089911;28;20442;-66
2023/08/20 08:46:39;;;;;;;148.40;138.93;;;27.30;99.90;;;;;;5091327;28;20497;-66
2023/08/20 08:49:08;;;;;;;152.53;143.17;;;27.30;99.90;;;;;;5091239;28;20438;-67
2023/08/20 08:51:37;;;;;;;156.03;146.03;;;27.50;99.90;;;;;;5090984;28;20439;-67
2023/08/20 08:54:09;;;;;;;157.10;147.40;;;27.80;99.90;;;;;;5089358;28;21014;-66
2023/08/20 08:56:36;;;;;;;149.27;139.90;;;28.00;99.90;;;;;;5090624;28;20561;-66
2023/08/20 08:59:05;;;;;;;143.27;133.67;;;28.20;99.90;;;;;;5090975;28;20499;-67
2023/08/20 09:01:33;;;;;;;139.70;130.40;;;28.40;99.90;;;;;;5090605;28;20499;-67
2023/08/20 09:04:00;;;;;;;132.70;123.70;;;28.40;99.90;;;;;;5089625;28;20434;-66
2023/08/20 09:06:43;;;;;;;137.93;129.00;;;28.30;99.90;;;;;;5090237;28;20462;-66
2023/08/20 09:09:13;;;;;;;143.73;133.83;;;28.10;99.90;;;;;;5090728;28;21018;-65
2023/08/20 09:11:41;;;;;;;144.63;135.13;;;28.10;99.90;;;;;;5090492;28;20867;-66
2023/08/20 09:14:21;;;;;;;145.30;136.13;;;28.10;99.90;;;;;;5088974;28;20476;-67
2023/08/20 09:16:55;;;;;;;139.40;130.30;;;28.20;99.90;;;;;;5090667;28;20486;-66
2023/08/20 09:19:23;;;;;;;138.43;129.10;;;28.30;99.90;;;;;;5090427;28;20495;-68
2023/08/20 09:21:53;;;;;;;141.23;132.23;;;28.40;99.90;;;;;;5090601;28;20749;-66
2023/08/20 09:24:34;;;;;;;137.60;128.30;;;28.50;99.90;;;;;;5089381;28;20438;-67
2023/08/20 09:27:05;;;;;;;131.20;122.23;;;28.70;99.90;;;;;;5070504;28;20466;-67
2023/08/20 09:29:34;;;;;;;119.63;111.10;;;28.90;99.90;;;;;;5070432;28;20475;-66
2023/08/20 09:32:03;;;;;;;117.87;108.60;;;29.20;99.90;;;;;;5070204;28;20551;-66
2023/08/20 09:34:39;;;;;;;111.00;102.63;;;29.20;99.90;;;;;;5076893;28;20474;-66
2023/08/20 09:37:09;;;;;;;102.67;94.27;;;29.50;99.90;;;;;;5090157;28;20844;-67
2023/08/20 09:39:39;;;;;;;82.07;74.57;;;30.20;99.90;;;;;;5090588;28;20470;-66
2023/08/20 09:42:10;;;;;;;75.40;68.27;;;30.50;99.90;;;;;;5090165;28;20489;-66
2023/08/20 09:44:39;;;;;;;64.13;57.13;;;30.80;99.90;;;;;;5089349;28;20441;-66
2023/08/20 09:47:09;;;;;;;65.10;49.40;;;31.20;99.90;;;;;;5089624;28;20883;-66
2023/08/20 09:49:40;;;;;;;58.77;43.80;;;31.40;99.90;;;;;;5090025;28;20580;-66
2023/08/20 09:52:09;;;;;;;59.97;37.77;;;31.60;99.90;;;;;;5089417;28;20474;-66
2023/08/20 09:54:51;;;;;;;57.40;36.83;;;31.80;99.90;;;;;;5089075;28;20474;-67
2023/08/20 09:57:32;;;;;;;57.50;34.00;;;31.80;99.90;;;;;;5069751;28;20488;-67
2023/08/20 10:00:02;;;;;;;56.00;31.67;;;31.60;99.90;;;;;;5069658;28;20489;-68
2023/08/20 10:02:30;;;;;;;55.23;30.20;;;31.80;99.90;;;;;;5068820;28;20447;-67
2023/08/20 10:05:01;;;;;;;58.80;29.00;;;32.20;99.90;;;;;;5071976;28;20453;-66
2023/08/20 10:07:31;;;;;;;57.30;30.60;;;32.30;99.90;;;;;;5089839;28;20507;-67
2023/08/20 10:10:02;;;;;;;56.97;30.80;;;32.10;99.90;;;;;;5089733;28;20446;-68
2023/08/20 10:12:32;;;;;;;56.20;29.97;;;32.00;99.90;;;;;;5088653;28;20446;-68
2023/08/20 10:15:01;;;;;;;55.87;24.90;;;32.10;99.90;;;;;;5089421;28;20494;-67
2023/08/20 10:17:31;;;;;;;59.03;27.53;;;32.70;99.80;;;;;;5089442;28;20987;-67
2023/08/20 10:20:00;;;;;;;56.90;23.73;;;33.00;98.90;;;;;;5089966;28;20442;-67
2023/08/20 10:22:34;;;;;;;54.47;22.47;;;33.30;96.00;;;;;;5088623;28;20453;-67
2023/08/20 10:25:07;;;;;;;155.90;145.93;;;33.60;95.60;;;;;;5089388;28;20448;-67
2023/08/20 10:27:37;;;;;;;168.27;157.83;;;33.50;95.10;;;;;;5089577;28;20948;-67
2023/08/20 10:30:15;;;;;;;185.57;174.37;;;33.40;95.60;;;;;;5089428;28;20450;-67
2023/08/20 10:32:48;;;;;;;176.30;165.27;;;33.80;93.90;;;;;;5088437;28;20540;-67
2023/08/20 10:35:17;;;;;;;163.60;153.27;;;33.90;91.30;;;;;;5089296;28;21147;-67
2023/08/20 10:38:04;;;;;;;177.83;167.13;;;33.70;91.10;;;;;;5089478;28;20539;-67
2023/08/20 10:40:55;;;;;;;149.80;139.97;;;33.50;89.80;;;;;;5089874;28;20434;-67
2023/08/20 10:43:31;;;;;;;141.07;131.27;;;33.30;86.00;;;;;;5084321;28;20948;-67
2023/08/20 10:46:07;;;;;;;135.70;126.30;;;33.30;88.60;;;;;;5089514;28;20461;-67
2023/08/20 10:48:39;;;;;;;122.23;113.70;;;33.70;88.50;;;;;;5089974;28;20545;-67
2023/08/20 10:51:17;;;;;;;121.10;112.33;;;34.10;82.70;;;;;;5089953;28;20491;-68
2023/08/20 10:54:03;;;;;;;123.23;114.43;;;34.00;83.60;;;;;;5088356;28;20487;-67
2023/08/20 10:56:43;;;;;;;131.00;121.60;;;34.00;81.30;;;;;;5089313;28;20485;-67
2023/08/20 10:59:15;;;;;;;126.67;117.77;;;33.70;84.20;;;;;;5091056;28;20529;-67
2023/08/20 11:01:45;;;;;;;124.67;115.43;;;33.70;77.60;;;;;;5093275;28;20508;-66
2023/08/20 11:04:15;;;;;;;134.23;124.43;;;33.30;77.00;;;;;;5091989;28;20950;-67
2023/08/20 11:06:44;;;;;;;139.27;129.90;;;33.30;79.10;;;;;;5093354;28;20878;-67
2023/08/20 11:09:12;;;;;;;146.63;136.70;;;33.40;77.00;;;;;;5093122;28;20483;-67
2023/08/20 11:11:43;;;;;;;130.53;121.43;;;33.90;80.40;;;;;;5092813;28;20449;-67
2023/08/20 11:14:14;;;;;;;123.33;114.77;;;34.70;75.50;;;;;;5091895;28;20446;-66
2023/08/20 11:16:43;;;;;;;148.67;139.23;;;35.20;70.80;;;;;;5093266;28;20564;-67
2023/08/20 11:19:11;;;;;;;150.67;141.13;;;35.20;70.50;;;;;;5093326;28;20529;-67
2023/08/20 11:21:41;;;;;;;139.20;129.93;;;35.00;71.50;;;;;;5093172;28;20442;-67
2023/08/20 11:24:09;;;;;;;149.77;140.17;;;34.70;69.40;;;;;;5091878;28;20963;-65
2023/08/20 11:26:42;;;;;;;125.23;116.53;;;34.80;72.20;;;;;;5092756;28;20511;-64
2023/08/20 11:29:12;;;;;;;432.97;392.63;;;35.40;64.20;;;;;;5093334;28;20481;-65
2023/08/20 11:31:40;;;;;;;198.03;187.13;;;35.40;67.10;;;;;;5092883;28;20533;-67
2023/08/20 11:34:08;;;;;;;188.33;176.93;;;35.40;59.70;;;;;;5091919;28;20834;-65
2023/08/20 11:36:39;;;;;;;191.97;180.87;;;35.50;60.00;;;;;;5092526;28;21144;-65
2023/08/20 11:39:07;;;;;;;211.70;200.43;;;35.50;62.90;;;;;;5092732;28;21009;-65
2023/08/20 11:41:37;;;;;;;196.83;185.77;;;35.70;66.40;;;;;;5092569;28;20450;-65
2023/08/20 11:44:09;;;;;;;190.23;179.43;;;36.30;63.40;;;;;;5091194;28;21210;-65
2023/08/20 11:46:43;;;;;;;180.07;169.37;;;36.80;61.80;;;;;;5092573;28;20844;-65
2023/08/20 11:49:13;;;;;;;201.70;190.40;;;36.70;60.00;;;;;;5092693;28;20449;-65
2023/08/20 11:51:42;;;;;;;179.17;168.57;;;36.20;59.20;;;;;;5092338;28;20442;-65
2023/08/20 11:54:12;;;;;;;172.20;162.10;;;35.90;59.20;;;;;;5091261;28;20443;-65
2023/08/20 11:56:46;;;;;;;176.67;166.27;;;36.30;58.80;;;;;;5092042;28;20560;-65
2023/08/20 11:59:16;;;;;;;168.70;158.70;;;36.50;56.20;;;;;;5092363;28;20438;-65
2023/08/20 12:01:50;;;;;;;163.77;153.87;;;36.60;55.40;;;;;;5091597;28;20453;-65
2023/08/20 12:04:18;;;;;;;183.03;172.37;;;37.30;56.30;;;;;;5090771;28;20434;-65
2023/08/20 12:07:04;;;;;;;180.60;169.93;;;37.60;55.00;;;;;;5091858;28;20451;-65
2023/08/20 12:09:33;;;;;;;170.43;159.97;;;37.50;53.80;;;;;;5091854;28;20545;-65
2023/08/20 12:12:03;;;;;;;175.90;165.63;;;37.70;54.20;;;;;;5091793;28;20446;-65
2023/08/20 12:14:32;;;;;;;168.43;158.47;;;38.10;52.90;;;;;;5091143;28;20478;-65
2023/08/20 12:17:00;;;;;;;148.10;138.70;;;38.30;52.30;;;;;;5091416;28;20552;-65
2023/08/20 12:19:28;;;;;;;141.50;132.47;;;38.40;51.70;;;;;;5091626;28;20849;-65
2023/08/20 12:21:56;;;;;;;148.67;139.07;;;38.40;54.40;;;;;;5091799;28;20519;-66
2023/08/20 12:24:25;;;;;;;139.57;130.47;;;38.60;52.90;;;;;;5090553;28;20446;-65
2023/08/20 12:26:53;;;;;;;136.27;127.27;;;38.50;50.60;;;;;;5091387;28;21010;-65